Time;durP1;ratioP1;P1;durP2;ratioP2;P2;SDS_P1;SDS_P2;PMS_P1;PMS_P2;Temp;Humidity;BMP_temperature;BMP_pressure;BME280_temperature;BME280_humidity;BME280_pressure;Samples;Min_cycle;Max_cycle;Signal;HPM_P1;HPM_P2
2023/02/23 00:01:24;;;;;;;12.20;5.03;;;;;;;5.16;100.00;100344.28;5000939;28;20066;-72
2023/02/23 00:03:50;;;;;;;10.40;4.85;;;;;;;5.11;100.00;100338.13;5000618;28;20400;-71
2023/02/23 00:06:18;;;;;;;19.17;4.93;;;;;;;5.15;100.00;100341.63;5002594;28;20038;-71
2023/02/23 00:08:46;;;;;;;11.88;4.53;;;;;;;5.18;100.00;100341.66;5002617;28;20046;-72
2023/02/23 00:11:13;;;;;;;13.07;4.45;;;;;;;5.21;100.00;100339.09;5000011;28;20124;-72
2023/02/23 00:13:40;;;;;;;12.13;5.03;;;;;;;5.22;100.00;100340.88;5002090;28;20120;-72
2023/02/23 00:16:14;;;;;;;9.15;3.78;;;;;;;5.22;100.00;100335.63;5003279;28;20030;-72
2023/02/23 00:18:54;;;;;;;13.00;4.78;;;;;;;5.21;100.00;100332.13;5002619;28;20042;-72
2023/02/23 00:21:23;;;;;;;9.63;4.55;;;;;;;5.19;100.00;100327.75;5006883;28;20172;-72
2023/02/23 00:23:49;;;;;;;14.32;5.03;;;;;;;5.18;100.00;100332.06;5005472;28;20407;-72
2023/02/23 00:26:15;;;;;;;14.43;5.25;;;;;;;5.19;100.00;100332.97;5001664;28;20099;-72
2023/02/23 00:28:43;;;;;;;13.50;4.85;;;;;;;5.22;100.00;100328.66;5004612;28;20520;-72
2023/02/23 00:31:10;;;;;;;18.98;5.47;;;;;;;5.22;100.00;100327.78;5005979;28;20030;-72
2023/02/23 00:33:36;;;;;;;14.77;4.85;;;;;;;5.21;100.00;100324.28;5003483;28;20091;-72
2023/02/23 00:36:04;;;;;;;14.05;5.10;;;;;;;5.20;100.00;100327.75;4990033;28;20038;-72
2023/02/23 00:38:33;;;;;;;11.50;5.25;;;;;;;5.20;100.00;100325.13;5003470;28;20034;-72
2023/02/23 00:40:59;;;;;;;16.73;5.15;;;;;;;5.25;100.00;100333.03;4989334;28;20042;-73
2023/02/23 00:43:26;;;;;;;13.10;5.57;;;;;;;5.26;100.00;100325.19;5006533;28;20095;-72
2023/02/23 00:45:55;;;;;;;13.98;4.85;;;;;;;5.18;100.00;100324.22;5000103;28;20048;-72
2023/02/23 00:48:20;;;;;;;12.30;5.38;;;;;;;5.12;100.00;100323.28;4992400;28;20081;-72
2023/02/23 00:50:49;;;;;;;15.52;5.20;;;;;;;5.14;100.00;100330.28;5002546;28;20066;-72
2023/02/23 00:53:14;;;;;;;18.27;5.53;;;;;;;5.18;100.00;100329.47;5001500;28;20034;-71
2023/02/23 00:55:40;;;;;;;15.90;5.03;;;;;;;5.20;100.00;100330.38;4991875;28;20616;-71
2023/02/23 00:58:08;;;;;;;15.30;5.07;;;;;;;5.19;100.00;100336.47;5001295;28;20443;-71
2023/02/23 01:00:40;;;;;;;14.70;5.97;;;;;;;5.09;100.00;100326.75;4992993;28;20049;-72
2023/02/23 01:03:06;;;;;;;;;;;;;;;5.15;100.00;100339.00;5000160;28;20038;-72
2023/02/23 01:05:33;;;;;;;14.65;4.03;;;;;;;5.14;100.00;100335.53;4992626;28;20260;-71
2023/02/23 01:07:59;;;;;;;12.68;4.30;;;;;;;5.16;100.00;100332.91;4997895;28;20407;-70
2023/02/23 01:10:24;;;;;;;12.30;4.25;;;;;;;5.19;100.00;100330.38;5009539;28;20084;-71
2023/02/23 01:12:51;;;;;;;13.38;4.30;;;;;;;5.24;100.00;100332.16;4993283;28;20045;-71
2023/02/23 01:15:17;;;;;;;14.00;5.40;;;;;;;5.25;100.00;100326.06;4990725;28;20575;-71
2023/02/23 01:17:43;;;;;;;13.27;5.03;;;;;;;5.23;100.00;100321.66;5006233;28;20033;-71
2023/02/23 01:20:19;;;;;;;15.15;4.40;;;;;;;5.26;100.00;100327.81;5003806;28;20032;-72
2023/02/23 01:22:46;;;;;;;13.98;4.47;;;;;;;5.24;100.00;100323.44;5001875;28;20026;-72
2023/02/23 01:25:12;;;;;;;18.02;5.65;;;;;;;5.23;100.00;100325.16;5000383;28;20484;-71
2023/02/23 01:27:42;;;;;;;14.10;4.97;;;;;;;5.23;100.00;100319.94;4989801;28;20043;-71
2023/02/23 01:30:10;;;;;;;14.30;4.10;;;;;;;5.24;100.00;100319.09;5021597;28;20107;-72
2023/02/23 01:32:37;;;;;;;11.65;5.03;;;;;;;5.21;100.00;100321.69;4999255;28;20068;-72
2023/02/23 01:35:12;;;;;;;13.90;5.13;;;;;;;5.22;100.00;100317.31;5006241;28;20044;-72
2023/02/23 01:37:40;;;;;;;9.32;3.92;;;;;;;5.18;100.00;100310.28;4988743;28;20033;-72
2023/02/23 01:40:15;;;;;;;10.60;4.70;;;;;;;5.18;100.00;100321.59;5004257;28;20491;-72
2023/02/23 01:42:44;;;;;;;13.88;5.15;;;;;;;5.11;100.00;100318.91;4993653;28;20034;-72
2023/02/23 01:45:27;;;;;;;12.55;5.18;;;;;;;5.10;100.00;100311.91;5002885;28;20041;-71
2023/02/23 01:48:00;;;;;;;10.65;4.47;;;;;;;5.05;100.00;100311.84;5003839;28;20105;-71
2023/02/23 01:50:29;;;;;;;10.93;4.50;;;;;;;5.07;100.00;100317.13;4996575;28;20040;-71
2023/02/23 01:52:55;;;;;;;12.35;4.75;;;;;;;5.06;100.00;100321.47;5020152;28;20492;-72
2023/02/23 01:55:23;;;;;;;12.82;4.97;;;;;;;5.03;100.00;100309.25;5005422;28;20052;-71
2023/02/23 01:58:10;;;;;;;12.93;4.78;;;;;;;5.07;100.00;100306.66;5003299;28;20389;-71
2023/02/23 02:00:36;;;;;;;11.02;4.88;;;;;;;5.08;100.00;100309.28;5021253;28;20046;-72
2023/02/23 02:03:10;;;;;;;12.88;4.80;;;;;;;5.13;100.00;100312.81;5005665;28;20080;-71
2023/02/23 02:05:37;;;;;;;11.00;4.28;;;;;;;5.15;100.00;100308.50;5018175;28;20507;-71
2023/02/23 02:08:05;;;;;;;13.38;4.43;;;;;;;5.15;100.00;100305.88;4994668;28;20054;-71
2023/02/23 02:10:43;;;;;;;11.43;4.63;;;;;;;5.16;100.00;100312.88;4991555;28;20034;-72
2023/02/23 02:13:13;;;;;;;11.57;4.03;;;;;;;5.16;100.00;100307.66;5017402;28;20504;-71
2023/02/23 02:15:52;;;;;;;11.18;4.63;;;;;;;5.19;100.00;100296.34;5007819;28;20033;-71
2023/02/23 02:18:40;;;;;;;14.90;4.55;;;;;;;5.20;100.00;100298.09;5010018;28;20101;-71
2023/02/23 02:21:24;;;;;;;15.00;4.65;;;;;;;5.15;100.00;100294.53;5003891;28;20042;-71
2023/02/23 02:24:25;;;;;;;13.23;4.75;;;;;;;5.16;100.00;100289.34;5011171;28;20036;-71
2023/02/23 02:26:57;;;;;;;13.13;5.53;;;;;;;5.11;100.00;100287.50;4999544;28;20453;-71
2023/02/23 02:29:46;;;;;;;11.95;5.30;;;;;;;5.08;100.00;100282.25;5005139;28;20038;-71
2023/02/23 02:32:49;;;;;;;12.57;5.53;;;;;;;5.08;100.00;100287.47;5003723;28;20507;-71
2023/02/23 02:35:45;;;;;;;16.20;4.90;;;;;;;5.08;100.00;100277.00;4954201;28;20056;-72
2023/02/23 02:38:19;;;;;;;11.30;5.10;;;;;;;5.08;100.00;100282.25;5005293;28;20091;-71
2023/02/23 02:40:53;;;;;;;15.10;5.97;;;;;;;5.04;100.00;100276.09;5000490;28;20038;-71
2023/02/23 02:43:30;;;;;;;18.17;5.60;;;;;;;5.02;100.00;100281.31;5003900;28;20034;-71
2023/02/23 02:46:04;;;;;;;11.02;4.90;;;;;;;5.04;100.00;100276.97;5007507;28;20069;-71
2023/02/23 02:48:45;;;;;;;11.02;5.20;;;;;;;5.04;100.00;100265.63;5002382;28;20089;-71
2023/02/23 02:51:23;;;;;;;13.70;5.45;;;;;;;5.07;100.00;100270.91;4997991;28;20034;-72
2023/02/23 02:54:05;;;;;;;18.63;6.88;;;;;;;5.11;100.00;100264.88;5002456;28;20505;-71
2023/02/23 02:56:39;;;;;;;16.08;6.90;;;;;;;5.11;100.00;100264.88;4991709;28;20034;-71
2023/02/23 04:19:08;;;;;;;14.10;5.50;;;;;;;5.88;100.00;100250.78;5000115;28;20053;-71
2023/02/23 04:21:34;;;;;;;13.13;4.97;;;;;;;5.96;100.00;100245.66;4999686;28;20030;-71
2023/02/23 04:23:59;;;;;;;15.98;5.53;;;;;;;6.02;100.00;100247.44;5006611;28;20033;-72
2023/02/23 04:26:24;;;;;;;14.30;5.10;;;;;;;6.08;100.00;100250.13;4999689;28;20058;-72
2023/02/23 04:28:50;;;;;;;15.43;5.45;;;;;;;6.18;100.00;100249.28;5003571;28;20116;-72
2023/02/23 04:31:17;;;;;;;19.27;6.20;;;;;;;6.17;100.00;100249.31;5000061;28;20088;-72
2023/02/23 04:33:42;;;;;;;11.27;5.50;;;;;;;6.10;100.00;100246.66;5003866;28;20034;-72
2023/02/23 04:36:08;;;;;;;15.77;4.93;;;;;;;6.17;100.00;100241.44;4999729;28;20592;-72
2023/02/23 04:38:33;;;;;;;16.08;6.03;;;;;;;6.25;100.00;100245.00;5003489;28;20443;-72
2023/02/23 04:40:58;;;;;;;10.68;4.63;;;;;;;6.32;100.00;100246.78;5000796;28;20038;-72
2023/02/23 04:43:24;;;;;;;12.45;4.95;;;;;;;6.39;100.00;100250.31;5002688;28;20042;-69
2023/02/23 04:45:49;;;;;;;14.48;5.90;;;;;;;6.36;100.00;100246.81;4999931;28;20081;-69
2023/02/23 04:48:14;;;;;;;14.05;6.47;;;;;;;6.38;100.00;100251.19;5003277;28;20037;-69
2023/02/23 04:50:40;;;;;;;14.52;6.18;;;;;;;6.42;100.00;100250.31;5002481;28;20523;-72
2023/02/23 04:53:05;;;;;;;12.85;6.68;;;;;;;6.34;100.00;100248.56;5005402;28;20036;-72
2023/02/23 04:55:31;;;;;;;18.80;7.63;;;;;;;6.34;100.00;100253.81;5001517;28;20054;-71
2023/02/23 04:57:59;;;;;;;16.77;6.43;;;;;;;6.31;100.00;100258.13;5002949;28;20034;-72
2023/02/23 05:00:24;;;;;;;9.73;5.43;;;;;;;6.17;100.00;100251.94;5003260;28;20101;-72
2023/02/23 05:02:50;;;;;;;14.50;6.50;;;;;;;6.03;100.00;100241.34;5002078;28;20041;-72
2023/02/23 05:05:15;;;;;;;13.15;6.82;;;;;;;6.02;100.00;100244.81;5003020;28;20041;-72
2023/02/23 05:07:40;;;;;;;18.98;7.43;;;;;;;6.03;100.00;100242.22;5003318;28;20044;-72
2023/02/23 05:10:06;;;;;;;16.25;5.53;;;;;;;6.17;100.00;100236.19;5007067;28;20041;-72
2023/02/23 05:12:32;;;;;;;13.65;5.72;;;;;;;6.30;100.00;100235.41;5005054;28;20045;-73
2023/02/23 05:14:57;;;;;;;12.60;5.80;;;;;;;6.40;100.00;100236.34;5007031;28;20084;-72
2023/02/23 05:17:23;;;;;;;13.65;5.70;;;;;;;6.46;100.00;100232.00;5005272;28;20027;-72
2023/02/23 05:19:48;;;;;;;19.88;9.05;;;;;;;6.52;100.00;100232.06;5005297;28;20579;-72
2023/02/23 05:22:14;;;;;;;17.00;8.98;;;;;;;6.55;100.00;100225.97;5003551;28;20480;-73
2023/02/23 05:24:39;;;;;;;17.20;8.98;;;;;;;6.53;100.00;100227.69;5006851;28;20077;-72
2023/02/23 05:27:08;;;;;;;23.27;9.77;;;;;;;6.45;100.00;100232.91;5008548;28;20114;-72
2023/02/23 05:29:34;;;;;;;19.27;9.82;;;;;;;6.33;100.00;100235.44;5006697;28;20084;-72
2023/02/23 05:31:59;;;;;;;24.08;10.55;;;;;;;6.21;100.00;100227.47;5006440;28;20442;-72
2023/02/23 05:34:26;;;;;;;22.63;10.25;;;;;;;5.99;100.00;100235.19;5006853;28;20053;-72
2023/02/23 05:36:51;;;;;;;22.15;12.05;;;;;;;5.83;100.00;100234.16;5002239;28;20034;-72
2023/02/23 05:39:17;;;;;;;21.15;9.77;;;;;;;5.75;100.00;100241.06;5007321;28;20041;-73
2023/02/23 05:41:42;;;;;;;18.10;9.52;;;;;;;5.74;100.00;100234.09;5004743;28;20122;-73
2023/02/23 05:44:07;;;;;;;16.45;8.32;;;;;;;5.70;100.00;100238.41;5006566;28;20124;-72
2023/02/23 05:46:32;;;;;;;16.85;8.98;;;;;;;5.68;100.00;100234.91;5002108;28;20141;-73
2023/02/23 05:49:00;;;;;;;19.27;10.48;;;;;;;5.67;100.00;100245.38;5004008;28;20121;-72
2023/02/23 05:51:28;;;;;;;20.58;10.93;;;;;;;5.66;100.00;100243.63;5010080;28;20030;-73
2023/02/23 05:53:53;;;;;;;22.05;11.98;;;;;;;5.60;100.00;100247.03;5006191;28;20053;-72
2023/02/23 05:56:19;;;;;;;18.42;10.40;;;;;;;5.58;100.00;100248.78;5010981;28;20523;-73
2023/02/23 05:58:56;;;;;;;16.77;9.57;;;;;;;5.61;100.00;100243.56;5008236;28;20445;-72
2023/02/23 06:01:22;;;;;;;28.38;14.85;;;;;;;5.60;100.00;100244.41;5009541;28;20117;-72
2023/02/23 06:03:48;;;;;;;25.65;12.13;;;;;;;5.60;100.00;100247.03;5009236;28;20536;-72
2023/02/23 06:06:14;;;;;;;25.75;12.70;;;;;;;5.57;100.00;100247.00;5010312;28;20084;-72
2023/02/23 06:08:40;;;;;;;22.77;12.10;;;;;;;5.54;100.00;100247.00;5005948;28;20125;-72
2023/02/23 06:11:05;;;;;;;16.92;9.45;;;;;;;5.53;100.00;100252.19;5002810;28;20044;-72
2023/02/23 06:13:31;;;;;;;17.60;9.80;;;;;;;5.47;100.00;100250.41;5008731;28;20112;-72
2023/02/23 06:15:58;;;;;;;14.35;6.95;;;;;;;5.38;100.00;100255.56;5003054;28;20084;-72
2023/02/23 06:18:26;;;;;;;15.82;7.75;;;;;;;5.30;100.00;100259.84;5012428;28;20049;-72
2023/02/23 06:20:52;;;;;;;20.48;7.63;;;;;;;5.26;100.00;100261.53;5004982;28;20049;-72
2023/02/23 06:23:17;;;;;;;15.73;7.70;;;;;;;5.16;100.00;100263.19;5001472;28;20448;-72
2023/02/23 06:25:44;;;;;;;16.48;7.38;;;;;;;5.16;100.00;100265.81;5009064;28;20030;-72
2023/02/23 06:28:10;;;;;;;17.58;6.80;;;;;;;5.14;100.00;100269.25;5007089;28;20076;-72
2023/02/23 06:30:37;;;;;;;17.00;7.82;;;;;;;5.13;100.00;100268.34;5005031;28;20664;-72
2023/02/23 06:33:02;;;;;;;18.75;8.93;;;;;;;5.13;100.00;100268.34;5006301;28;20511;-71
2023/02/23 06:35:28;;;;;;;19.15;8.60;;;;;;;5.15;100.00;100279.72;4993266;28;20042;-72
2023/02/23 06:37:53;;;;;;;20.92;9.15;;;;;;;5.10;100.00;100275.28;4997564;28;20416;-72
2023/02/23 06:40:19;;;;;;;17.10;7.00;;;;;;;5.01;100.00;100274.34;5009484;28;20052;-72
2023/02/23 06:42:45;;;;;;;27.42;11.90;;;;;;;5.01;100.00;100269.09;5003837;28;20044;-72
2023/02/23 06:45:12;;;;;;;24.00;10.73;;;;;;;5.06;100.00;100266.53;5003298;28;20489;-72
2023/02/23 06:47:38;;;;;;;18.73;8.75;;;;;;;5.15;100.00;100278.84;5004608;28;20039;-72
2023/02/23 06:50:05;;;;;;;16.50;7.82;;;;;;;5.22;100.00;100281.56;5005086;28;20037;-72
2023/02/23 06:52:31;;;;;;;22.63;10.35;;;;;;;5.30;100.00;100280.78;5002888;28;20034;-72
2023/02/23 06:54:56;;;;;;;22.25;9.80;;;;;;;5.36;100.00;100280.81;5005211;28;20113;-72
2023/02/23 06:57:22;;;;;;;18.05;8.00;;;;;;;5.38;100.00;100282.59;5006720;28;20053;-72
2023/02/23 06:59:47;;;;;;;22.45;8.98;;;;;;;5.35;100.00;100285.19;5002274;28;20082;-72
2023/02/23 07:02:13;;;;;;;21.80;8.77;;;;;;;5.32;100.00;100282.53;5005124;28;20030;-72
2023/02/23 07:04:38;;;;;;;16.20;7.50;;;;;;;5.35;100.00;100284.31;5003937;28;20069;-72
2023/02/23 07:07:04;;;;;;;20.05;8.40;;;;;;;5.48;100.00;100289.69;5001088;28;20038;-72
2023/02/23 07:09:29;;;;;;;17.42;7.47;;;;;;;5.63;100.00;100286.38;5001126;28;20071;-73
2023/02/23 07:11:55;;;;;;;21.75;10.60;;;;;;;5.78;100.00;100289.97;5007897;28;20113;-72
2023/02/23 07:14:20;;;;;;;18.85;9.00;;;;;;;5.91;100.00;100281.38;5001466;28;20108;-73
2023/02/23 07:16:45;;;;;;;30.13;11.80;;;;;;;6.04;100.00;100283.25;5003720;28;20125;-74
2023/02/23 07:19:11;;;;;;;20.38;8.70;;;;;;;6.11;100.00;100286.81;5004837;28;20044;-73
2023/02/23 07:21:36;;;;;;;17.30;8.88;;;;;;;6.23;100.00;100286.03;5003189;28;20084;-73
2023/02/23 07:24:03;;;;;;;20.17;8.68;;;;;;;6.32;100.00;100286.09;5007463;28;20026;-73
2023/02/23 07:26:29;;;;;;;16.85;8.40;;;;;;;6.33;100.00;100290.47;5005845;28;20038;-72
2023/02/23 07:28:55;;;;;;;19.10;8.82;;;;;;;6.35;100.00;100288.75;4999778;28;20378;-72
2023/02/23 07:31:20;;;;;;;18.50;9.10;;;;;;;6.44;100.00;100288.78;5004224;28;20091;-72
2023/02/23 07:33:45;;;;;;;15.45;7.60;;;;;;;6.52;100.00;100274.03;5004272;28;20042;-72
2023/02/23 07:36:11;;;;;;;21.23;8.63;;;;;;;6.72;100.00;100286.34;5003043;28;20049;-73
2023/02/23 07:38:36;;;;;;;13.90;7.60;;;;;;;6.90;100.00;100281.19;5004495;28;20077;-72
2023/02/23 07:41:03;;;;;;;18.60;8.18;;;;;;;7.08;100.00;100284.78;4998517;28;21799;-73
2023/02/23 07:43:29;;;;;;;18.67;8.15;;;;;;;7.22;100.00;100288.34;5010668;28;20053;-73
2023/02/23 07:45:58;;;;;;;21.92;8.95;;;;;;;7.35;100.00;100284.88;5008575;28;20026;-73
2023/02/23 07:48:23;;;;;;;20.48;8.70;;;;;;;7.40;100.00;100284.91;5006181;28;20045;-73
2023/02/23 07:50:49;;;;;;;18.63;8.50;;;;;;;7.41;100.00;100278.75;5002678;28;20030;-73
2023/02/23 07:53:14;;;;;;;16.35;9.05;;;;;;;7.35;100.00;100273.50;5007629;28;20032;-73
2023/02/23 07:55:40;;;;;;;17.02;8.38;;;;;;;7.44;100.00;100290.16;5006128;28;20531;-73
2023/02/23 07:58:06;;;;;;;16.25;8.90;;;;;;;7.59;100.00;100288.44;5009395;28;20483;-73
2023/02/23 08:00:32;;;;;;;15.57;8.48;;;;;;;7.77;100.00;100287.59;5005389;28;20061;-73
2023/02/23 08:02:58;;;;;;;20.00;9.57;;;;;;;7.83;100.00;100288.50;5002178;28;20038;-73
2023/02/23 08:05:24;;;;;;;17.40;9.63;;;;;;;7.92;100.00;100287.63;5001343;28;20034;-73
2023/02/23 08:07:50;;;;;;;18.08;9.15;;;;;;;8.10;100.00;100286.75;5002482;28;20092;-73
2023/02/23 08:10:16;;;;;;;18.63;9.48;;;;;;;8.28;100.00;100292.00;5010727;28;20045;-73
2023/02/23 08:12:42;;;;;;;18.88;8.27;;;;;;;8.50;100.00;100286.75;5001467;28;20120;-73
2023/02/23 08:15:08;;;;;;;18.38;10.27;;;;;;;8.63;100.00;100287.59;5006354;28;20042;-73
2023/02/23 08:17:35;;;;;;;22.08;7.88;;;;;;;8.76;100.00;100284.06;5002506;28;20382;-73
2023/02/23 08:20:00;;;;;;;15.68;6.47;;;;;;;8.88;100.00;100284.03;4999006;28;20129;-73
2023/02/23 08:22:26;;;;;;;12.93;5.50;;;;;;;9.09;100.00;100287.44;5005267;28;20624;-73
2023/02/23 08:24:51;;;;;;;16.38;6.72;;;;;;;9.31;100.00;100291.75;5002627;28;20034;-73
2023/02/23 08:27:18;;;;;;;13.63;6.07;;;;;;;9.40;100.00;100290.81;5008291;28;20037;-73
2023/02/23 08:29:43;;;;;;;12.70;6.20;;;;;;;9.37;100.00;100294.34;5004200;28;20029;-73
2023/02/23 08:32:09;;;;;;;23.73;10.95;;;;;;;9.48;100.00;100296.91;5003193;28;20511;-73
2023/02/23 08:34:42;;;;;;;19.25;8.43;;;;;;;9.62;100.00;100292.47;4993525;28;20571;-73
2023/02/23 08:37:08;;;;;;;17.15;7.72;;;;;;;9.80;100.00;100296.75;5000448;28;20034;-73
2023/02/23 08:39:33;;;;;;;14.50;8.02;;;;;;;9.94;100.00;100291.38;5001480;28;20038;-73
2023/02/23 08:41:58;;;;;;;15.65;7.28;;;;;;;10.06;100.00;100287.75;5004318;28;20728;-73
2023/02/23 08:44:24;;;;;;;14.35;6.82;;;;;;;10.25;100.00;100288.50;5003386;28;20077;-73
2023/02/23 08:46:49;;;;;;;16.30;8.55;;;;;;;10.44;100.00;100284.81;5002833;28;20061;-73
2023/02/23 08:49:15;;;;;;;16.30;7.63;;;;;;;10.63;100.00;100284.63;5004354;28;20096;-73
2023/02/23 08:51:41;;;;;;;14.90;7.55;;;;;;;10.79;100.00;100290.63;4991726;28;20046;-73
2023/02/23 08:54:12;;;;;;;17.73;8.77;;;;;;;10.94;100.00;100283.41;5001650;28;20468;-73
2023/02/23 08:56:38;;;;;;;14.32;7.65;;;;;;;11.03;100.00;100286.81;5005420;28;20132;-73
2023/02/23 08:59:03;;;;;;;18.40;7.82;;;;;;;11.13;100.00;100286.72;5002791;28;20039;-73
2023/02/23 09:01:29;;;;;;;18.10;8.63;;;;;;;11.18;100.00;100289.28;5002417;28;20120;-73
2023/02/23 09:03:54;;;;;;;15.18;7.07;;;;;;;11.15;97.45;100276.13;5008603;28;20388;-73
2023/02/23 09:06:24;;;;;;;16.85;8.75;;;;;;;11.27;97.13;100288.31;5002311;28;20095;-73
2023/02/23 09:08:49;;;;;;;17.95;8.35;;;;;;;11.41;97.34;100284.56;5001993;28;20044;-70
2023/02/23 09:11:15;;;;;;;15.15;7.68;;;;;;;11.58;96.79;100283.44;5014507;28;20042;-70
2023/02/23 09:13:40;;;;;;;16.15;8.27;;;;;;;11.74;96.66;100281.50;5002799;28;20038;-70
2023/02/23 09:16:06;;;;;;;15.48;8.10;;;;;;;11.83;94.68;100284.84;5001939;28;20034;-71
2023/02/23 09:18:32;;;;;;;16.30;7.60;;;;;;;11.91;93.99;100282.13;5003120;28;20510;-71
2023/02/23 09:20:57;;;;;;;14.63;7.38;;;;;;;12.05;94.76;100288.09;5002540;28;20121;-72
2023/02/23 09:23:27;;;;;;;15.70;8.57;;;;;;;12.25;95.10;100285.09;4999800;28;20035;-70
2023/02/23 09:25:52;;;;;;;14.32;7.00;;;;;;;12.38;94.73;100282.25;5001299;28;20034;-71
2023/02/23 09:28:19;;;;;;;14.57;7.40;;;;;;;12.35;92.72;100290.25;5003213;28;20112;-71
2023/02/23 09:30:45;;;;;;;13.82;7.35;;;;;;;12.42;93.66;100282.16;5004056;28;20033;-71
2023/02/23 09:33:11;;;;;;;12.82;6.65;;;;;;;12.56;91.88;100289.84;5001257;28;20031;-71
2023/02/23 09:35:36;;;;;;;11.93;6.32;;;;;;;12.55;90.45;100285.47;5002895;28;20034;-70
2023/02/23 09:38:03;;;;;;;12.57;7.40;;;;;;;12.62;90.97;100288.88;5002461;28;20403;-71
2023/02/23 09:40:48;;;;;;;11.73;6.35;;;;;;;12.74;89.07;100290.44;5004376;28;20038;-71
2023/02/23 09:43:49;;;;;;;11.27;6.05;;;;;;;12.56;89.04;100284.56;5003246;28;20041;-70
2023/02/23 09:46:43;;;;;;;14.27;7.25;;;;;;;12.50;89.80;100288.19;5002201;28;20038;-71
2023/02/23 09:49:17;;;;;;;14.75;7.72;;;;;;;12.65;90.98;100283.50;5001487;28;20045;-70
2023/02/23 09:51:48;;;;;;;14.43;7.95;;;;;;;12.80;91.10;100282.34;5007793;28;20044;-71
2023/02/23 09:54:17;;;;;;;13.80;6.83;;;;;;;12.97;90.49;100280.25;5000662;28;20042;-71
2023/02/23 09:56:45;;;;;;;14.10;7.57;;;;;;;13.10;90.45;100276.47;5005692;28;20056;-70
2023/02/23 09:59:14;;;;;;;12.30;6.38;;;;;;;13.23;87.80;100278.81;5010166;28;20037;-70
2023/02/23 10:01:59;;;;;;;11.80;5.88;;;;;;;13.32;88.64;100278.69;5001449;28;20030;-71
2023/02/23 10:04:39;;;;;;;12.45;5.47;;;;;;;13.41;86.48;100283.78;5011922;28;20112;-71
2023/02/23 10:07:25;;;;;;;11.95;6.47;;;;;;;13.39;86.65;100285.59;5001416;28;20034;-70
2023/02/23 10:10:16;;;;;;;12.00;6.28;;;;;;;13.40;87.63;100281.16;5008509;28;20065;-71
2023/02/23 10:13:17;;;;;;;11.48;6.28;;;;;;;13.31;87.12;100280.47;5003433;28;20038;-71
2023/02/23 10:16:16;;;;;;;13.65;6.90;;;;;;;13.37;87.05;100284.75;4925169;29;20036;-70
2023/02/23 10:19:29;;;;;;;13.18;6.32;;;;;;;13.44;87.71;100283.72;5008118;28;20034;-70
2023/02/23 10:22:01;;;;;;;11.23;5.72;;;;;;;13.54;88.05;100281.72;4995099;28;20049;-70
2023/02/23 10:24:36;;;;;;;11.88;5.95;;;;;;;13.51;87.42;100282.66;5011157;28;20084;-70
2023/02/23 10:27:09;;;;;;;12.40;6.20;;;;;;;13.56;87.56;100286.09;5005987;28;20109;-70
2023/02/23 10:29:48;;;;;;;13.90;7.35;;;;;;;13.56;87.76;100278.13;5002660;28;20034;-71
2023/02/23 10:32:31;;;;;;;13.82;7.40;;;;;;;13.69;87.08;100285.81;5004777;28;20511;-71
2023/02/23 10:34:57;;;;;;;17.17;8.18;;;;;;;13.82;87.42;100279.31;5008721;28;20041;-71
2023/02/23 10:37:23;;;;;;;14.45;6.43;;;;;;;13.99;86.67;100274.50;5004570;28;20038;-71
2023/02/23 10:39:50;;;;;;;12.40;6.20;;;;;;;13.89;85.96;100278.28;5001615;28;20042;-71
2023/02/23 10:42:27;;;;;;;13.25;6.15;;;;;;;13.89;85.29;100277.41;5004462;28;20049;-71
2023/02/23 10:44:53;;;;;;;10.95;5.40;;;;;;;13.84;85.82;100279.31;5003466;28;20038;-71
2023/02/23 10:47:21;;;;;;;11.40;6.63;;;;;;;13.70;86.31;100288.44;5006175;28;20039;-70
2023/02/23 10:49:52;;;;;;;10.75;5.57;;;;;;;13.80;86.37;100283.78;5009811;28;20049;-71
2023/02/23 10:52:22;;;;;;;14.18;6.20;;;;;;;13.83;86.35;100278.41;5006742;28;20042;-71
2023/02/23 10:54:50;;;;;;;10.35;5.10;;;;;;;13.93;85.86;100282.59;5005303;28;20643;-71
2023/02/23 10:57:22;;;;;;;10.88;6.07;;;;;;;13.84;84.78;100277.50;5002363;28;20022;-71
2023/02/23 11:00:05;;;;;;;12.60;6.57;;;;;;;13.89;84.94;100275.63;5004417;28;20072;-71
2023/02/23 11:02:32;;;;;;;13.30;6.53;;;;;;;13.90;84.32;100272.06;5005678;28;20476;-71
2023/02/23 11:04:59;;;;;;;13.25;5.35;;;;;;;13.95;84.57;100279.91;5004852;28;20048;-71
2023/02/23 11:07:30;;;;;;;12.13;5.63;;;;;;;13.92;85.80;100269.38;5002678;28;20041;-71
2023/02/23 11:10:19;;;;;;;11.35;6.35;;;;;;;14.12;83.63;100274.16;5004148;28;20476;-70
2023/02/23 11:12:44;;;;;;;11.23;5.68;;;;;;;14.16;84.40;100266.09;5002836;28;20065;-70
2023/02/23 11:15:25;;;;;;;11.95;5.80;;;;;;;14.22;84.84;100265.06;5009912;28;20417;-70
2023/02/23 11:17:59;;;;;;;14.93;6.50;;;;;;;14.41;83.13;100258.41;5001614;28;20034;-71
2023/02/23 11:20:34;;;;;;;15.30;7.22;;;;;;;14.47;82.53;100260.88;5002732;28;20049;-70
2023/02/23 11:23:21;;;;;;;11.48;5.85;;;;;;;14.33;83.84;100257.72;5004595;28;20533;-71
2023/02/23 11:25:49;;;;;;;13.15;6.60;;;;;;;14.01;84.99;100259.38;5003919;28;20037;-71
2023/02/23 11:28:23;;;;;;;14.07;6.95;;;;;;;13.84;84.90;100255.44;5003604;28;20595;-70
2023/02/23 11:30:49;;;;;;;14.43;6.95;;;;;;;13.82;86.25;100258.97;5011240;28;20038;-71
2023/02/23 11:33:18;;;;;;;13.05;6.68;;;;;;;13.77;86.40;100252.91;5003154;28;20048;-70
2023/02/23 11:35:45;;;;;;;12.00;7.30;;;;;;;13.87;86.09;100248.25;5007218;28;20484;-70
2023/02/23 11:38:25;;;;;;;10.93;5.53;;;;;;;14.09;86.16;100243.28;5003240;28;20041;-70
2023/02/23 11:40:58;;;;;;;11.57;5.45;;;;;;;14.32;84.23;100233.88;5000078;28;20057;-70
2023/02/23 11:43:24;;;;;;;11.23;6.18;;;;;;;14.48;83.32;100225.44;5003628;28;20038;-70
2023/02/23 11:45:52;;;;;;;18.52;7.13;;;;;;;14.68;82.64;100224.06;5003869;28;20056;-70
2023/02/23 11:48:32;;;;;;;10.60;5.65;;;;;;;14.76;82.84;100229.16;5004371;28;20040;-70
2023/02/23 11:50:58;;;;;;;10.70;5.35;;;;;;;14.65;83.13;100225.03;5005374;28;20859;-70
2023/02/23 11:53:30;;;;;;;11.20;6.03;;;;;;;14.78;82.99;100228.22;5004288;28;20035;-69
2023/02/23 11:56:01;;;;;;;11.23;6.53;;;;;;;14.92;82.27;100227.81;5000181;28;20060;-71
2023/02/23 11:58:43;;;;;;;12.45;6.35;;;;;;;15.04;80.85;100223.94;5003525;28;20040;-71
2023/02/23 12:01:12;;;;;;;13.88;7.90;;;;;;;15.04;80.66;100216.84;5008811;28;21116;-71
2023/02/23 12:03:53;;;;;;;12.82;6.90;;;;;;;15.21;80.88;100224.28;5003528;28;20033;-71
2023/02/23 12:06:33;;;;;;;14.57;6.88;;;;;;;15.23;79.56;100219.81;5005998;28;20042;-71
2023/02/23 12:09:23;;;;;;;14.63;6.95;;;;;;;15.09;80.67;100206.94;5007104;28;20038;-71
2023/02/23 12:12:20;;;;;;;14.32;7.93;;;;;;;15.07;81.70;100206.09;5000110;28;20053;-71
2023/02/23 12:14:55;;;;;;;13.57;7.55;;;;;;;15.11;81.26;100199.75;4999123;28;20513;-71
2023/02/23 12:17:25;;;;;;;14.98;7.50;;;;;;;15.05;81.75;100196.44;5000960;28;20400;-71
2023/02/23 12:20:09;;;;;;;14.77;8.02;;;;;;;14.95;81.58;100203.81;5002441;28;20038;-71
2023/02/23 12:22:40;;;;;;;17.98;8.85;;;;;;;14.92;82.08;100201.25;5000857;28;20074;-71
2023/02/23 12:25:42;;;;;;;19.38;10.57;;;;;;;15.08;83.12;100201.66;5001547;28;20034;-71
2023/02/23 12:28:33;;;;;;;19.38;9.63;;;;;;;15.19;81.74;100203.97;5006342;28;20081;-71
2023/02/23 12:31:04;;;;;;;16.77;9.48;;;;;;;15.28;80.95;100195.75;5002386;28;20042;-71
2023/02/23 12:33:39;;;;;;;17.73;9.65;;;;;;;15.16;81.02;100196.09;4999901;28;20054;-71
2023/02/23 12:36:25;;;;;;;15.30;9.07;;;;;;;14.88;81.94;100189.84;5001047;28;20088;-71
2023/02/23 12:39:19;;;;;;;17.92;8.82;;;;;;;14.65;82.97;100200.25;5003279;28;20535;-71
2023/02/23 12:41:54;;;;;;;19.58;8.60;;;;;;;14.31;85.41;100198.50;4999555;28;20046;-71
2023/02/23 12:44:52;;;;;;;17.05;9.50;;;;;;;14.11;87.44;100203.44;5004411;28;20435;-71
2023/02/23 12:47:26;;;;;;;17.67;8.75;;;;;;;13.84;89.78;100195.28;4962236;28;20140;-71
2023/02/23 12:50:06;;;;;;;17.02;8.98;;;;;;;13.75;91.32;100206.09;5005657;28;20447;-71
2023/02/23 12:52:35;;;;;;;17.83;8.35;;;;;;;13.61;91.23;100208.22;5000679;28;20053;-71